Carlos Rovirosa Pérez International Airport
MMVA : now visible

Airfield :











YOU CAN JOIN US ON...

 
LOGIN :

Register | Disclaimer

   EN    FR    IT 

 









Legend :    VFR   Marginal VFR   IFR   Intensive IFR   Very Intensive IFR
Visi :
Ceiling :
>= 8 km
>= 3000ft
5 to 8 km
1000 to 3000 ft
1500m to 5 km
500 to 1000 ft
800 to 1500m
200 to 500 ft
< 800m
< 200 ft
Symbols :   Thunderstorms  Fog  Heavy snow  Heavy precipitations  Wind > 20 kt






- Airport Elevation : 46 ft
- IATA code : VSA


MMVA - Carlos Rovirosa Pérez International

CURRENT METAR :
  • 131642Z 00000KT 3SM HZ SCT012 BKN018 BKN070 30/24 A2991 RMK 8/630

EXPIRED METARs :
  • 131547Z 00000KT 3SM HZ SCT012 BKN018 BKN070 30/24 A2991 RMK 8/630
  • 131445Z 00000KT 5SM FEW015 SCT070 SCT210 29/24 A2991 RMK SLP127 5//// 910 8/631 HZY

TAF TAF MMVA
Valid from the 13 at 18:00 until the 14 at 18:00 UTC


131748Z 1318/1418 00000KT 3SM HZ SCT012 BKN020 BKN070
FM132000 32010KT 5SM HZ BKN020 OVC070
TEMPO 1321/1401 3SM RA BKN015 OVC070
FM140300 00000KT 5SM HZ BKN015 OVC070
TEMPO 1411/1415 2SM BR OVC010
MMFR FIR / North America



MET'MAP, your aeronautical weather chart ! - Copyright ORBIFLY December 2007 - Disclaimer

ORBIFLY MET'MAP TEAM :

Programming & Development : Alexandra Zaïnal
Concept & original design : Baudouin d'Aumeries
Assistance for programming : Marc-Olivier Méhu
Technical & hardware support : Manuel Goepfert

Contact : metmap@orbifly.com




SOURCES & CREDITS :

   NOAA       Earth
Advisory